Date,TemperatureHighF,TemperatureAvgF,TemperatureLowF,DewpointHighF,DewpointAvgF,DewpointLowF,HumidityHigh,HumidityAvg,HumidityLow,PressureMaxIn,PressureMinIn,WindSpeedMaxMPH,WindSpeedAvgMPH,GustSpeedMaxMPH,PrecipitationSumIn
2013-8-1,82.9,74.5,70.5,75.0,71.5,68.0,95,90,75,30.01,29.86,0,0,0,0.22
2013-8-2,85.1,75.0,66.6,73.0,69.3,65.0,96,84,61,30.02,29.90,2,0,0,0.49
2013-8-3,86.6,76.6,71.7,78.0,73.2,70.0,95,90,70,30.01,29.91,1,0,0,0.32
2013-8-4,82.4,74.7,68.9,72.0,68.1,62.0,96,81,51,30.03,29.88,0,-13,0,0.00
2013-8-5,80.5,72.5,66.3,70.0,65.8,64.0,93,80,60,30.10,30.00,1,0,0,0.00
2013-8-6,79.6,73.7,66.9,70.0,67.8,65.0,95,82,69,30.06,29.99,3,0,0,0.05
2013-8-7,82.8,76.2,69.6,73.0,70.2,67.0,93,82,66,30.10,30.02,1,0,0,0.00
2013-8-8,85.3,79.0,72.3,76.0,72.8,70.0,93,82,67,30.07,29.99,3,0,0,0.00
2013-8-9,87.9,79.8,74.9,78.0,74.4,72.0,93,83,69,30.04,29.97,0,0,0,0.00
2013-8-10,91.3,79.5,73.5,79.0,74.8,72.0,96,86,63,30.09,30.00,2,0,0,0.87
2013-8-11,88.5,78.2,72.0,77.0,74.0,71.0,96,88,65,30.11,30.00,2,0,0,0.01
2013-8-12,89.0,80.3,73.3,76.0,74.2,71.0,96,83,56,30.05,29.92,2,0,0,0.00
2013-8-13,87.1,77.6,71.3,78.0,73.8,70.0,96,88,69,29.97,29.77,4,0,0,1.25
2013-8-14,75.1,72.0,63.8,73.0,66.8,61.0,93,84,74,30.09,29.82,1,0,0,0.00
2013-8-15,73.6,66.2,60.9,64.0,59.9,58.0,92,81,59,30.17,30.09,1,0,0,0.00
2013-8-16,69.5,65.8,60.5,63.0,61.3,59.0,93,85,76,30.19,30.10,1,0,0,0.00
2013-8-17,71.3,67.0,63.6,70.0,65.0,61.0,95,93,88,30.19,30.12,0,0,0,0.04
2013-8-18,77.3,71.9,68.6,71.0,68.7,66.0,96,90,80,30.21,30.11,2,0,0,0.02
2013-8-19,72.8,69.4,66.9,71.0,68.0,65.0,96,95,91,30.20,30.10,0,0,0,0.10
2013-8-20,79.9,73.4,66.8,74.0,70.7,66.0,97,91,79,30.19,30.11,1,0,0,0.00
2013-8-21,83.1,75.3,71.2,78.0,73.1,70.0,96,93,80,30.23,30.10,1,0,0,0.01
2013-8-22,86.4,77.4,70.5,76.0,72.1,69.0,97,84,61,30.14,29.99,0,-14,0,0.00
2013-8-23,84.5,76.1,69.0,76.0,71.3,66.0,95,85,71,30.07,29.93,0,0,0,0.00
2013-8-24,79.6,72.1,65.4,66.0,63.5,60.0,91,76,52,30.31,30.08,1,0,0,0.00
2013-8-25,77.3,69.4,62.0,65.0,61.6,59.0,95,78,54,30.40,30.29,1,0,0,0.00
2013-8-26,81.1,68.5,57.0,64.0,60.4,55.0,96,78,51,30.33,30.12,1,0,0,0.00
2013-8-27,86.7,74.1,63.4,75.0,67.9,60.0,92,81,60,30.13,29.96,1,0,0,0.00
2013-8-28,81.3,76.2,69.9,77.0,73.3,68.0,96,91,79,29.98,29.86,0,0,0,0.00
2013-8-29,84.5,79.2,75.3,75.0,73.2,71.0,90,82,68,30.01,29.83,5,0,0,0.00
2013-8-30,86.1,76.0,68.0,71.0,68.4,64.0,95,79,51,30.06,29.93,0,0,0,0.00
2013-8-31,87.0,77.2,68.3,74.0,71.2,67.0,95,83,63,29.97,29.86,1,0,0,0.00